Time;durP1;ratioP1;P1;durP2;ratioP2;P2;SDS_P1;SDS_P2;PMS_P1;PMS_P2;Temp;Humidity;BMP_temperature;BMP_pressure;BME280_temperature;BME280_humidity;BME280_pressure;Samples;Min_cycle;Max_cycle;Signal;HPM_P1;HPM_P2
2022/04/12 00:01:05;;;;;;;7.72;6.93;;;;;;;10.01;48.79;95227.19;5070029;28;20043;-64
2022/04/12 00:03:31;;;;;;;7.63;6.93;;;;;;;9.89;49.25;95201.16;5070637;28;20492;-64
2022/04/12 00:05:56;;;;;;;9.25;7.22;;;;;;;9.94;49.23;95203.69;5070386;28;20035;-64
2022/04/12 00:08:22;;;;;;;9.60;6.93;;;;;;;9.93;48.97;95198.66;5070374;28;20457;-64
2022/04/12 00:10:49;;;;;;;8.10;7.22;;;;;;;10.14;49.28;95221.09;5071242;28;20036;-64
2022/04/12 00:13:17;;;;;;;9.10;7.43;;;;;;;9.79;48.53;95175.56;5073932;28;20017;-64
2022/04/12 00:15:42;;;;;;;10.35;7.53;;;;;;;10.08;48.80;95216.94;5074067;28;20405;-65
2022/04/12 00:20:55;;;;;;;7.93;7.10;;;;;;;10.08;49.06;95214.28;5073878;28;20067;-65
2022/04/12 00:23:20;;;;;;;8.90;6.90;;;;;;;10.08;48.86;95214.28;5073838;28;20112;-65
2022/04/12 00:25:46;;;;;;;8.07;7.28;;;;;;;10.04;48.68;95223.97;5073933;28;20079;-65
2022/04/12 00:28:13;;;;;;;8.98;6.72;;;;;;;9.87;49.92;95229.84;5073909;28;20016;-65
2022/04/12 00:30:38;;;;;;;9.63;6.90;;;;;;;9.64;49.54;95181.97;5073116;28;20039;-65
2022/04/12 00:33:04;;;;;;;8.63;7.47;;;;;;;9.82;49.25;95184.81;5073810;28;20024;-64
2022/04/12 00:35:29;;;;;;;8.95;7.47;;;;;;;9.49;49.42;95139.78;5073716;28;20032;-65
2022/04/12 00:37:55;;;;;;;9.10;7.00;;;;;;;9.68;49.30;95168.91;5073854;28;20028;-64
2022/04/12 00:40:24;;;;;;;7.72;7.03;;;;;;;9.82;49.36;95209.50;5073120;28;20028;-64
2022/04/12 00:42:50;;;;;;;10.60;6.95;;;;;;;9.95;49.23;95204.47;5073586;28;20020;-65
2022/04/12 00:45:16;;;;;;;11.55;6.85;;;;;;;9.89;49.05;95190.50;5073655;28;20047;-65
2022/04/12 00:47:41;;;;;;;7.28;6.38;;;;;;;10.07;48.72;95221.47;5073625;28;20477;-65
2022/04/12 00:50:09;;;;;;;8.23;6.55;;;;;;;10.07;49.48;95216.16;5073478;28;20481;-64
2022/04/12 00:52:38;;;;;;;8.10;6.57;;;;;;;9.99;48.98;95213.44;5073353;28;20146;-64
2022/04/12 00:55:05;;;;;;;7.38;6.68;;;;;;;10.21;48.94;95232.09;5073544;28;20103;-65
2022/04/12 00:57:34;;;;;;;8.15;7.25;;;;;;;10.27;48.99;95230.91;5073529;28;20097;-65
2022/04/12 01:00:00;;;;;;;8.00;7.20;;;;;;;10.27;48.78;95224.81;5073394;28;20469;-65
2022/04/12 01:02:26;;;;;;;7.43;6.40;;;;;;;10.23;48.95;95216.59;5072981;28;20466;-64
2022/04/12 01:04:52;;;;;;;7.90;6.88;;;;;;;9.78;49.36;95139.47;5073018;28;20127;-65
2022/04/12 01:07:18;;;;;;;8.90;6.53;;;;;;;10.01;49.37;95177.50;5073053;28;20466;-65
2022/04/12 01:09:43;;;;;;;10.30;6.95;;;;;;;9.56;48.97;95123.47;5073101;28;20048;-64
2022/04/12 01:12:10;;;;;;;7.07;6.35;;;;;;;9.89;49.39;95158.63;5072791;28;20397;-64
2022/04/12 01:14:36;;;;;;;7.90;6.75;;;;;;;9.98;49.60;95193.25;5073132;28;20032;-64
2022/04/12 01:17:04;;;;;;;6.55;5.95;;;;;;;9.65;49.44;95148.22;5072883;28;20676;-65
2022/04/12 01:19:30;;;;;;;7.88;7.07;;;;;;;9.37;49.68;95105.78;5072937;28;20105;-65
2022/04/12 01:22:03;;;;;;;7.55;6.50;;;;;;;9.67;49.89;95155.91;5053771;28;20534;-64
2022/04/12 01:24:29;;;;;;;6.65;5.95;;;;;;;9.26;49.28;95106.28;5073147;28;20111;-65
2022/04/12 01:26:55;;;;;;;7.70;6.90;;;;;;;9.14;49.76;95087.41;5072666;28;20020;-64
2022/04/12 01:29:22;;;;;;;8.52;7.40;;;;;;;9.70;50.01;95179.22;5072844;28;20672;-64
2022/04/12 01:31:48;;;;;;;7.55;6.93;;;;;;;9.02;49.56;95072.78;5072154;28;20044;-64
2022/04/12 01:34:13;;;;;;;8.02;6.28;;;;;;;9.62;49.64;95176.19;5072515;28;20029;-64
2022/04/12 01:36:39;;;;;;;7.70;6.65;;;;;;;9.51;49.96;95166.03;5072448;28;20024;-65
2022/04/12 01:39:04;;;;;;;7.00;5.95;;;;;;;9.63;50.62;95193.69;5054687;28;20657;-64
2022/04/12 01:41:30;;;;;;;9.15;6.30;;;;;;;9.56;50.54;95179.22;5071847;28;20106;-64
2022/04/12 01:43:55;;;;;;;6.43;5.68;;;;;;;9.18;50.30;95122.91;5054381;28;20021;-64
2022/04/12 01:46:21;;;;;;;5.85;5.28;;;;;;;9.60;50.65;95199.56;5072300;28;20021;-64
2022/04/12 01:48:48;;;;;;;7.07;5.55;;;;;;;9.27;50.14;95142.38;5072261;28;20070;-65
2022/04/12 01:51:13;;;;;;;6.20;5.63;;;;;;;9.60;50.42;95193.47;5071863;28;20025;-65
2022/04/12 01:53:39;;;;;;;6.75;6.10;;;;;;;9.20;50.40;95156.00;5072073;28;20028;-65
2022/04/12 01:56:05;;;;;;;6.57;5.97;;;;;;;8.76;50.48;95085.72;5054275;28;20074;-64
2022/04/12 01:58:32;;;;;;;9.05;6.45;;;;;;;8.82;50.20;95089.88;5072272;28;20032;-64
2022/04/12 02:00:58;;;;;;;7.03;5.78;;;;;;;9.27;50.77;95169.69;5071184;28;20035;-65
2022/04/12 02:03:23;;;;;;;7.60;5.70;;;;;;;9.18;50.44;95158.19;5071995;28;20017;-65
2022/04/12 02:05:49;;;;;;;7.75;6.20;;;;;;;9.01;50.86;95134.88;5071773;28;20040;-64
2022/04/12 02:08:14;;;;;;;6.47;5.85;;;;;;;8.99;50.94;95138.91;5071030;28;20028;-64
2022/04/12 02:10:40;;;;;;;6.80;5.65;;;;;;;9.11;50.90;95157.78;5071641;28;20028;-64
2022/04/12 02:13:05;;;;;;;8.35;5.80;;;;;;;9.08;51.04;95167.13;5071956;28;20036;-65
2022/04/12 02:15:31;;;;;;;7.22;5.72;;;;;;;9.28;51.02;95200.47;5071921;28;20178;-65
2022/04/12 02:17:56;;;;;;;8.55;5.82;;;;;;;9.27;51.45;95206.84;5053933;28;20029;-65
2022/04/12 02:20:22;;;;;;;8.52;6.15;;;;;;;9.06;51.44;95171.16;5071399;28;20428;-64
2022/04/12 02:22:47;;;;;;;7.75;6.20;;;;;;;8.95;51.57;95146.66;5070831;28;20028;-65
2022/04/12 02:25:13;;;;;;;6.57;5.97;;;;;;;9.01;51.64;95160.63;5071679;28;20627;-64
2022/04/12 02:27:38;;;;;;;8.02;5.97;;;;;;;9.27;51.50;95198.91;5071670;28;20016;-64
2022/04/12 02:30:06;;;;;;;8.52;4.85;;;;;;;9.18;51.50;95171.44;5071018;28;20048;-65
2022/04/12 02:32:32;;;;;;;8.20;5.85;;;;;;;9.29;51.71;95194.06;5069956;28;20093;-65
2022/04/12 02:35:00;;;;;;;7.07;5.38;;;;;;;8.51;51.81;95072.94;5069767;28;20082;-64
2022/04/12 02:37:26;;;;;;;6.68;5.95;;;;;;;8.42;51.49;95064.84;5070701;28;20037;-65
2022/04/12 02:39:51;;;;;;;6.07;5.47;;;;;;;9.27;51.58;95193.59;5071484;28;20554;-65
2022/04/12 02:42:17;;;;;;;6.80;5.70;;;;;;;9.15;51.46;95172.03;5070621;28;20033;-64
2022/04/12 02:44:42;;;;;;;6.28;5.68;;;;;;;8.93;51.45;95137.41;5071302;28;20585;-67
2022/04/12 02:47:08;;;;;;;5.82;5.22;;;;;;;9.22;51.81;95183.06;5071216;28;20070;-64
2022/04/12 02:49:33;;;;;;;6.68;5.93;;;;;;;9.19;51.28;95180.97;5071265;28;20025;-66
2022/04/12 02:51:58;;;;;;;6.03;5.18;;;;;;;8.90;51.12;95148.59;5070688;28;20055;-64
2022/04/12 02:54:24;;;;;;;6.78;6.07;;;;;;;9.10;51.59;95185.38;5071304;28;20063;-64
2022/04/12 02:56:49;;;;;;;6.63;5.82;;;;;;;9.00;51.54;95174.97;5053090;28;20389;-64
2022/04/12 02:59:14;;;;;;;8.35;5.85;;;;;;;8.83;51.48;95149.00;5053145;28;20031;-64
2022/04/12 03:01:40;;;;;;;6.28;5.53;;;;;;;9.06;51.72;95187.88;5070520;28;20351;-66
2022/04/12 03:04:05;;;;;;;6.65;6.05;;;;;;;8.88;51.61;95175.44;5071094;28;20103;-66
2022/04/12 03:06:31;;;;;;;6.20;5.63;;;;;;;8.93;51.40;95201.09;5070980;28;20359;-66
2022/04/12 03:08:56;;;;;;;6.55;5.90;;;;;;;8.91;51.74;95184.69;5070789;28;20025;-66
2022/04/12 03:11:21;;;;;;;5.57;5.07;;;;;;;8.95;52.18;95199.69;5070608;28;20032;-65
2022/04/12 03:13:47;;;;;;;7.13;5.97;;;;;;;8.64;52.07;95156.22;5077406;22;20053;-64
2022/04/12 03:16:12;;;;;;;7.75;6.03;;;;;;;8.96;51.86;95201.31;5051224;28;20048;-64
2022/04/12 03:18:38;;;;;;;8.55;5.43;;;;;;;8.78;52.02;95176.38;5050900;28;20044;-63
2022/04/12 03:21:03;;;;;;;8.15;5.13;;;;;;;8.62;51.79;95159.16;5054883;28;20032;-64
2022/04/12 03:23:28;;;;;;;8.75;6.28;;;;;;;8.61;52.44;95156.81;5071024;28;20087;-64
2022/04/12 03:25:54;;;;;;;7.22;5.80;;;;;;;8.70;52.26;95176.25;5070948;28;20024;-63
2022/04/12 03:28:19;;;;;;;6.50;5.88;;;;;;;8.51;52.14;95147.16;5070913;28;20535;-64
2022/04/12 03:30:44;;;;;;;7.45;5.38;;;;;;;8.56;52.06;95153.16;5070452;28;20106;-64
2022/04/12 03:33:10;;;;;;;7.10;5.40;;;;;;;8.53;52.43;95145.78;5070836;28;20021;-64
2022/04/12 03:35:36;;;;;;;9.77;6.25;;;;;;;8.77;52.46;95179.34;5070714;28;20029;-63
2022/04/12 03:38:01;;;;;;;5.57;5.07;;;;;;;8.66;52.29;95169.97;5070834;28;20550;-63
2022/04/12 03:40:30;;;;;;;8.27;6.18;;;;;;;8.34;52.56;95127.25;5070281;28;20032;-64
2022/04/12 03:42:58;;;;;;;6.05;5.45;;;;;;;8.68;52.54;95175.78;5070747;28;20103;-64
2022/04/12 03:45:24;;;;;;;7.90;4.78;;;;;;;8.30;53.00;95136.84;5071680;28;20020;-64
2022/04/12 03:47:49;;;;;;;5.18;4.68;;;;;;;8.58;53.08;95174.84;5074673;28;20435;-64
2022/04/12 03:50:14;;;;;;;6.55;5.30;;;;;;;8.70;53.18;95186.88;5074332;28;20431;-64
2022/04/12 03:52:40;;;;;;;6.55;4.70;;;;;;;8.41;53.32;95179.13;5074600;28;20111;-63
2022/04/12 03:55:06;;;;;;;8.80;4.90;;;;;;;8.28;52.79;95138.97;5074675;28;20032;-64
2022/04/12 03:57:32;;;;;;;6.88;4.63;;;;;;;8.53;52.91;95176.81;5074592;28;20048;-64
2022/04/12 03:59:58;;;;;;;7.40;4.75;;;;;;;8.56;52.88;95184.19;5074411;28;20388;-64
2022/04/12 04:02:23;;;;;;;5.95;4.60;;;;;;;8.51;52.79;95176.31;5074012;28;20033;-64
2022/04/12 04:04:48;;;;;;;5.43;4.93;;;;;;;8.53;52.76;95203.31;5074487;28;20104;-64
2022/04/12 04:07:14;;;;;;;10.40;6.22;;;;;;;8.47;52.72;95178.75;5074401;28;20033;-64
2022/04/12 04:09:39;;;;;;;5.75;5.15;;;;;;;8.40;52.87;95188.16;5074180;28;20035;-64
2022/04/12 04:12:05;;;;;;;5.70;5.18;;;;;;;8.26;53.18;95154.41;5073639;28;20040;-65
2022/04/12 04:14:32;;;;;;;8.05;5.30;;;;;;;8.51;52.88;95206.25;5073845;28;20442;-65
2022/04/12 04:17:00;;;;;;;7.03;5.32;;;;;;;8.34;53.13;95168.84;5074083;28;20484;-65
2022/04/12 04:19:26;;;;;;;9.15;5.68;;;;;;;7.98;53.04;95112.94;5074024;28;20029;-63
2022/04/12 04:21:51;;;;;;;8.43;6.07;;;;;;;7.97;53.25;95106.09;5073504;28;20094;-63
2022/04/12 04:24:17;;;;;;;7.55;5.25;;;;;;;7.89;52.94;95104.09;5073828;28;20031;-63
2022/04/12 04:26:44;;;;;;;12.20;5.38;;;;;;;7.48;53.20;95035.84;5073901;28;20671;-65
2022/04/12 04:29:10;;;;;;;5.65;5.15;;;;;;;7.79;53.31;95078.56;5074105;28;20059;-62
2022/04/12 04:31:35;;;;;;;10.40;4.97;;;;;;;8.21;53.01;95151.81;5073571;28;20096;-62
2022/04/12 04:34:00;;;;;;;6.05;5.43;;;;;;;8.23;52.91;95154.97;5073867;28;20131;-62
2022/04/12 04:36:26;;;;;;;6.00;4.90;;;;;;;8.07;53.84;95133.22;5073857;28;20036;-62
2022/04/12 04:38:51;;;;;;;6.78;4.55;;;;;;;8.12;53.47;95137.66;5073912;28;20017;-60
2022/04/12 04:41:17;;;;;;;6.30;5.00;;;;;;;8.08;53.22;95126.81;5073003;28;20028;-60
2022/04/12 04:43:45;;;;;;;7.90;5.20;;;;;;;8.56;53.14;95200.09;5073553;28;20107;-60
2022/04/12 04:46:11;;;;;;;7.05;5.50;;;;;;;7.99;53.06;95094.13;5073271;28;20481;-60
2022/04/12 04:48:36;;;;;;;6.65;4.93;;;;;;;8.67;53.17;95179.50;5073295;28;20064;-60
2022/04/12 04:51:02;;;;;;;8.65;4.60;;;;;;;8.75;53.29;95190.25;5072928;28;20032;-60
2022/04/12 04:53:27;;;;;;;4.78;4.22;;;;;;;8.84;52.89;95196.44;5073329;28;20028;-60
2022/04/12 04:55:53;;;;;;;6.65;4.35;;;;;;;8.48;53.29;95111.41;5073157;28;20439;-64
2022/04/12 04:58:18;;;;;;;5.40;3.80;;;;;;;7.41;52.99;94962.09;5071964;28;20477;-61
2022/04/12 05:00:44;;;;;;;6.88;4.30;;;;;;;7.71;53.30;94997.13;5072474;28;20704;-63
2022/04/12 05:03:09;;;;;;;8.02;4.28;;;;;;;8.93;52.77;95164.72;5073237;28;20028;-65
2022/04/12 05:05:35;;;;;;;7.18;3.95;;;;;;;8.09;52.48;95032.28;5073086;28;20507;-64
2022/04/12 05:08:02;;;;;;;11.40;4.25;;;;;;;9.14;52.10;95201.53;5072988;28;20032;-64
2022/04/12 05:10:29;;;;;;;6.35;4.50;;;;;;;8.24;52.04;95026.72;5072211;28;20025;-64
2022/04/12 05:12:56;;;;;;;6.55;4.15;;;;;;;8.98;51.96;95132.03;5054709;28;20017;-64
2022/04/12 05:15:22;;;;;;;8.38;4.75;;;;;;;8.13;52.05;95014.69;5072954;28;20415;-62
2022/04/12 05:17:52;;;;;;;6.30;3.22;;;;;;;9.63;51.20;95230.09;5072901;28;20024;-60
2022/04/12 05:20:18;;;;;;;4.15;3.75;;;;;;;9.49;51.37;95171.66;5072380;28;20020;-62
2022/04/12 05:22:44;;;;;;;6.75;4.13;;;;;;;9.78;51.44;95205.88;5072465;28;20081;-62
2022/04/12 05:25:10;;;;;;;12.07;3.65;;;;;;;9.76;51.66;95191.31;5072431;28;20033;-64
2022/04/12 05:27:35;;;;;;;6.55;3.60;;;;;;;8.40;51.21;94992.03;5072370;28;20159;-60
2022/04/12 05:30:02;;;;;;;5.80;3.67;;;;;;;8.69;50.63;95004.97;5071692;28;20492;-63
2022/04/12 05:32:27;;;;;;;4.03;3.03;;;;;;;9.50;50.69;95122.78;5072222;28;20366;-63
2022/04/12 05:34:53;;;;;;;5.00;3.60;;;;;;;10.24;49.84;95228.88;5072459;28;20036;-63
2022/04/12 05:37:19;;;;;;;7.15;3.00;;;;;;;10.18;49.97;95189.34;5072503;28;20354;-64
2022/04/12 05:39:45;;;;;;;4.20;2.60;;;;;;;10.37;49.81;95195.34;5072406;28;20090;-60
2022/04/12 05:42:10;;;;;;;5.57;3.63;;;;;;;10.12;48.65;95146.16;5053846;28;20033;-60
2022/04/12 05:44:36;;;;;;;3.58;3.03;;;;;;;10.75;48.56;95217.06;5072038;28;20436;-63
2022/04/12 05:47:03;;;;;;;6.03;3.17;;;;;;;10.32;48.31;95140.41;5072043;28;20051;-63
2022/04/12 05:49:29;;;;;;;4.28;3.42;;;;;;;10.68;48.26;95177.56;5072077;28;20044;-64
2022/04/12 05:51:55;;;;;;;4.22;3.15;;;;;;;10.94;48.08;95185.72;5071354;28;20472;-61
2022/04/12 05:54:21;;;;;;;9.63;3.90;;;;;;;10.88;47.99;95157.66;5054034;28;20062;-61
2022/04/12 05:56:46;;;;;;;9.30;3.55;;;;;;;11.30;46.93;95210.66;5071738;28;20029;-61
2022/04/12 05:59:12;;;;;;;5.65;3.30;;;;;;;11.43;46.84;95215.88;5071736;28;20527;-62
2022/04/12 06:01:38;;;;;;;4.32;3.78;;;;;;;10.87;46.68;95118.84;5071238;28;20078;-62
2022/04/12 06:04:04;;;;;;;5.50;3.28;;;;;;;11.50;46.49;95214.66;5071804;28;20017;-62
2022/04/12 06:06:32;;;;;;;4.07;3.20;;;;;;;11.65;46.14;95224.91;5071918;28;20307;-61
2022/04/12 06:08:57;;;;;;;5.13;3.15;;;;;;;11.29;45.99;95161.16;5071331;28;20028;-61
2022/04/12 06:11:23;;;;;;;4.15;3.58;;;;;;;11.69;45.94;95196.56;5071274;28;20077;-62
2022/04/12 06:13:48;;;;;;;3.85;3.00;;;;;;;11.94;45.47;95216.41;5071411;28;20036;-61
2022/04/12 06:16:13;;;;;;;4.57;3.22;;;;;;;12.14;45.60;95223.03;5071559;28;20044;-61
2022/04/12 06:18:39;;;;;;;5.68;3.38;;;;;;;11.93;45.08;95190.84;5071718;28;20078;-65
2022/04/12 06:21:05;;;;;;;7.00;3.20;;;;;;;11.91;45.05;95183.16;5053034;28;20112;-63
2022/04/12 06:23:30;;;;;;;5.43;3.50;;;;;;;12.18;44.45;95207.97;5071488;28;20025;-64
2022/04/12 06:25:56;;;;;;;6.57;3.97;;;;;;;11.10;44.32;95037.03;5071454;28;20081;-64
2022/04/12 06:28:21;;;;;;;4.85;3.38;;;;;;;11.68;44.51;95131.81;5071335;28;20029;-64
2022/04/12 06:30:48;;;;;;;6.00;3.58;;;;;;;12.39;44.12;95245.50;5070914;28;20024;-64
2022/04/12 06:33:14;;;;;;;4.43;3.30;;;;;;;11.30;44.25;95034.91;5071239;28;20232;-65
2022/04/12 06:35:39;;;;;;;5.18;3.67;;;;;;;11.49;44.09;95077.25;5071432;28;20165;-64
2022/04/12 06:38:05;;;;;;;8.63;3.50;;;;;;;11.31;44.14;95013.31;5053315;28;20444;-65
2022/04/12 06:40:30;;;;;;;4.13;3.72;;;;;;;12.88;44.17;95235.47;5070802;28;20021;-64
2022/04/12 06:42:56;;;;;;;6.63;3.90;;;;;;;12.79;43.55;95207.97;5071049;28;20112;-63
2022/04/12 06:45:21;;;;;;;6.07;3.92;;;;;;;12.84;43.71;95189.91;5071140;28;20020;-63
2022/04/12 06:47:55;;;;;;;6.65;3.63;;;;;;;12.28;43.30;95097.53;5071257;28;20477;-63
2022/04/12 06:50:21;;;;;;;4.30;3.78;;;;;;;12.29;43.26;95067.91;5070646;28;20029;-64
2022/04/12 06:52:46;;;;;;;6.40;3.65;;;;;;;13.19;42.90;95201.31;5070912;28;20028;-63
2022/04/12 06:55:12;;;;;;;5.20;3.33;;;;;;;12.58;42.26;95077.09;5071153;28;20025;-63
2022/04/12 06:57:38;;;;;;;5.00;3.45;;;;;;;13.14;42.42;95158.75;5053079;28;20434;-63
2022/04/12 07:00:07;;;;;;;4.50;3.03;;;;;;;12.79;42.02;95083.31;5070757;28;20064;-64
2022/04/12 07:02:32;;;;;;;4.93;3.80;;;;;;;12.30;41.95;95010.78;5070698;28;20051;-63
2022/04/12 07:04:58;;;;;;;7.13;3.58;;;;;;;13.64;41.97;95181.38;5071043;28;20477;-64
2022/04/12 07:07:24;;;;;;;7.30;3.25;;;;;;;13.69;41.48;95191.91;5070588;28;20609;-65
2022/04/12 07:09:49;;;;;;;5.60;3.45;;;;;;;12.94;41.66;95060.66;5070952;28;20358;-65
2022/04/12 07:12:15;;;;;;;4.00;3.58;;;;;;;12.98;41.37;95057.03;5070428;28;20030;-67
2022/04/12 07:14:40;;;;;;;5.15;2.75;;;;;;;13.27;40.96;95082.22;5070846;28;20102;-65
2022/04/12 07:17:05;;;;;;;3.70;2.60;;;;;;;13.30;40.63;95089.59;5070864;28;20086;-64
2022/04/12 07:19:31;;;;;;;5.22;3.47;;;;;;;13.52;40.41;95097.34;5070681;28;20481;-64
2022/04/12 07:21:57;;;;;;;3.95;2.97;;;;;;;13.83;40.32;95165.72;5055551;28;20108;-64
2022/04/12 07:24:22;;;;;;;3.70;3.00;;;;;;;13.36;40.25;95074.16;5075238;28;20052;-64
2022/04/12 07:26:48;;;;;;;7.10;3.15;;;;;;;13.91;39.96;95138.13;5074941;28;20487;-64
2022/04/12 07:29:13;;;;;;;5.43;2.72;;;;;;;13.43;39.45;95063.75;5074842;28;20046;-64
2022/04/12 07:31:39;;;;;;;3.95;2.75;;;;;;;14.39;39.74;95187.69;5074405;28;20048;-65
2022/04/12 07:34:04;;;;;;;9.75;3.40;;;;;;;14.93;39.47;95240.50;5074710;28;20021;-64
2022/04/12 07:36:29;;;;;;;5.18;3.00;;;;;;;15.06;39.48;95256.31;5074597;28;20024;-64
2022/04/12 07:38:55;;;;;;;5.50;2.85;;;;;;;14.24;38.80;95116.81;5074621;28;20028;-64
2022/04/12 07:41:20;;;;;;;6.97;3.13;;;;;;;14.37;38.79;95116.88;5073968;28;20029;-65
2022/04/12 07:43:46;;;;;;;6.47;2.60;;;;;;;14.89;38.82;95160.03;5074412;28;20031;-64
2022/04/12 07:46:13;;;;;;;8.90;2.60;;;;;;;14.99;38.25;95250.69;5074416;28;20546;-64
2022/04/12 07:48:40;;;;;;;2.83;2.42;;;;;;;14.61;38.03;95103.63;5074469;28;20035;-64
2022/04/12 07:51:05;;;;;;;3.00;2.67;;;;;;;14.22;37.91;95056.72;5074020;28;20032;-64
2022/04/12 07:53:30;;;;;;;4.65;2.58;;;;;;;14.69;37.33;95128.72;5074237;28;20032;-63
2022/04/12 07:55:56;;;;;;;4.90;2.50;;;;;;;14.65;37.87;95080.44;5074341;28;20024;-65
2022/04/12 07:58:21;;;;;;;4.28;2.95;;;;;;;15.51;37.31;95214.56;5074092;28;20029;-65
2022/04/12 08:00:47;;;;;;;3.28;2.60;;;;;;;14.35;37.69;95082.44;5073675;28;20035;-65
2022/04/12 08:03:13;;;;;;;5.13;2.80;;;;;;;14.26;37.56;95036.22;5073904;28;20038;-65
2022/04/12 08:05:38;;;;;;;4.97;2.80;;;;;;;14.63;37.01;95044.38;5074042;28;20021;-65
2022/04/12 08:08:05;;;;;;;5.38;2.90;;;;;;;14.59;37.14;95044.28;5073930;28;20028;-65
2022/04/12 08:10:31;;;;;;;4.57;2.38;;;;;;;15.74;37.00;95182.75;5073536;28;20039;-64
2022/04/12 08:12:57;;;;;;;3.00;2.55;;;;;;;14.99;36.98;95043.66;5073575;28;20024;-64
2022/04/12 08:15:23;;;;;;;5.60;2.78;;;;;;;14.73;36.36;95035.94;5073821;28;20021;-65
2022/04/12 08:17:48;;;;;;;8.82;3.00;;;;;;;15.21;36.26;95064.66;5073964;28;20062;-65
2022/04/12 08:20:14;;;;;;;5.32;2.40;;;;;;;15.11;36.01;95042.91;5073348;28;20492;-64
2022/04/12 08:22:41;;;;;;;7.13;2.80;;;;;;;15.76;35.94;95087.44;5073768;28;20020;-65
2022/04/12 08:25:08;;;;;;;4.53;2.22;;;;;;;16.59;35.50;95211.41;5073757;28;20031;-64
2022/04/12 08:27:33;;;;;;;6.05;2.50;;;;;;;15.72;35.58;95048.25;5073731;28;20021;-64
2022/04/12 08:29:59;;;;;;;5.18;2.53;;;;;;;16.80;35.22;95203.97;5073474;28;20377;-65
2022/04/12 08:32:25;;;;;;;6.57;2.90;;;;;;;16.90;34.66;95189.28;5072993;28;20036;-64
2022/04/12 08:34:50;;;;;;;7.07;2.80;;;;;;;15.28;34.89;94999.78;5073628;28;20174;-64
2022/04/12 08:37:15;;;;;;;4.85;2.97;;;;;;;16.83;34.42;95221.28;5055760;28;20081;-64
2022/04/12 08:39:41;;;;;;;3.58;2.40;;;;;;;17.07;33.83;95178.19;5073593;28;20031;-65
2022/04/12 08:42:06;;;;;;;3.58;2.78;;;;;;;16.71;33.68;95074.41;5072834;28;20540;-64
2022/04/12 08:44:33;;;;;;;3.05;2.50;;;;;;;17.64;33.24;95179.63;5073413;28;20020;-64
2022/04/12 08:47:02;;;;;;;4.43;2.33;;;;;;;17.80;32.86;95163.50;5073200;28;20021;-64
2022/04/12 08:49:29;;;;;;;4.32;2.83;;;;;;;16.82;32.64;95050.50;5055294;28;20028;-66
2022/04/12 08:51:55;;;;;;;3.53;2.58;;;;;;;17.16;32.39;95024.84;5072716;28;20033;-64
2022/04/12 08:54:21;;;;;;;4.50;2.58;;;;;;;17.26;32.29;95037.00;5073357;28;20031;-65
2022/04/12 08:56:51;;;;;;;2.78;2.42;;;;;;;18.22;32.70;95167.50;5073102;28;20060;-65
2022/04/12 08:59:18;;;;;;;3.00;1.92;;;;;;;17.41;31.83;95038.88;5073024;28;20481;-65
2022/04/12 09:01:44;;;;;;;2.55;1.80;;;;;;;18.78;31.83;95175.25;5054448;28;20033;-65
2022/04/12 09:04:10;;;;;;;4.78;1.98;;;;;;;17.35;30.85;95030.31;5073408;28;20035;-65
2022/04/12 09:06:50;;;;;;;4.22;1.92;;;;;;;18.36;30.86;95128.22;5054975;28;20480;-66
2022/04/12 09:09:18;;;;;;;3.65;1.73;;;;;;;18.28;30.17;95042.28;5072981;28;20108;-65
2022/04/12 09:12:06;;;;;;;2.40;2.00;;;;;;;18.83;30.05;95124.53;5072841;28;20719;-65
2022/04/12 09:14:37;;;;;;;4.43;2.00;;;;;;;19.29;30.00;95170.44;5072850;28;20037;-65
2022/04/12 09:17:05;;;;;;;2.50;1.60;;;;;;;18.70;29.31;95043.09;5072940;28;20012;-65
2022/04/12 09:19:43;;;;;;;3.03;1.85;;;;;;;18.84;28.60;95071.44;5072744;28;20465;-66
2022/04/12 09:22:13;;;;;;;2.50;1.80;;;;;;;19.57;28.16;95116.19;5071920;28;20033;-66
2022/04/12 09:24:52;;;;;;;3.40;1.70;;;;;;;19.08;27.21;95046.81;5072377;28;20393;-65
2022/04/12 09:27:20;;;;;;;2.78;1.70;;;;;;;19.30;27.55;95047.19;5072568;28;20070;-66
2022/04/12 09:29:53;;;;;;;4.03;2.00;;;;;;;19.59;27.44;95040.28;5072313;28;20052;-66
2022/04/12 09:32:25;;;;;;;3.42;2.28;;;;;;;20.41;27.60;95171.03;5071935;28;20091;-66
2022/04/12 09:34:53;;;;;;;4.07;2.15;;;;;;;19.77;28.04;95111.50;5072270;28;20093;-65
2022/04/12 09:37:28;;;;;;;2.85;2.20;;;;;;;20.36;28.20;95188.31;5072300;28;20078;-66
2022/04/12 09:39:59;;;;;;;2.50;1.90;;;;;;;19.80;28.64;95169.38;5072135;28;20108;-65
2022/04/12 09:42:39;;;;;;;3.05;2.00;;;;;;;20.03;27.88;95118.06;5071786;28;20567;-66
2022/04/12 09:45:06;;;;;;;3.60;1.80;;;;;;;19.82;27.66;95102.31;5071798;28;20396;-65
2022/04/12 09:47:32;;;;;;;3.25;1.85;;;;;;;19.58;27.31;95066.47;5072168;28;20420;-65
2022/04/12 09:49:59;;;;;;;2.30;1.88;;;;;;;19.37;27.03;95014.91;5072098;28;20024;-65
2022/04/12 09:52:24;;;;;;;3.33;1.73;;;;;;;19.36;26.97;95027.63;5053432;28;20028;-65
2022/04/12 09:54:51;;;;;;;2.05;1.50;;;;;;;19.37;27.14;94988.72;5071952;28;20090;-65
2022/04/12 09:57:17;;;;;;;4.85;1.92;;;;;;;19.54;26.29;94990.09;5071920;28;20031;-66
2022/04/12 09:59:44;;;;;;;1.90;1.70;;;;;;;20.13;26.57;95053.38;5071795;28;20013;-65
2022/04/12 10:02:11;;;;;;;4.13;1.70;;;;;;;19.98;26.79;95003.81;5070986;28;20036;-65
2022/04/12 10:04:38;;;;;;;5.18;1.90;;;;;;;19.82;27.33;95024.06;5071645;28;20024;-65
2022/04/12 10:07:05;;;;;;;3.72;1.70;;;;;;;19.93;27.39;95004.16;5071751;28;20099;-65
2022/04/12 10:09:33;;;;;;;2.42;1.60;;;;;;;20.02;26.28;94949.88;5071542;28;20021;-65
2022/04/12 10:11:59;;;;;;;3.05;1.73;;;;;;;20.08;26.45;94956.50;5071151;28;20025;-65
2022/04/12 10:14:25;;;;;;;3.65;1.88;;;;;;;19.93;26.16;94963.66;5071518;28;20439;-65
2022/04/12 10:16:51;;;;;;;2.05;1.50;;;;;;;20.54;25.84;95012.19;5071619;28;20089;-65
2022/04/12 10:19:18;;;;;;;2.45;1.38;;;;;;;20.57;25.61;94963.56;5053651;28;20024;-65
2022/04/12 10:21:43;;;;;;;4.13;1.40;;;;;;;20.87;24.98;94954.56;5070924;28;20032;-65
2022/04/12 10:24:12;;;;;;;3.03;1.40;;;;;;;20.96;25.12;95001.00;5071462;28;20028;-65
2022/04/12 10:26:38;;;;;;;2.25;1.20;;;;;;;21.89;25.08;95099.13;5071292;28;20024;-65
2022/04/12 10:29:06;;;;;;;1.27;1.17;;;;;;;21.83;24.72;95016.72;5070980;28;20059;-65
2022/04/12 10:31:32;;;;;;;4.05;1.42;;;;;;;21.44;23.84;94955.78;5069746;28;20062;-66
2022/04/12 10:34:01;;;;;;;3.50;1.40;;;;;;;21.60;24.39;95109.78;5071302;28;20040;-66
2022/04/12 10:36:55;;;;;;;3.30;1.20;;;;;;;21.17;24.57;94995.00;5071223;28;20024;-65
2022/04/12 10:39:37;;;;;;;3.08;1.15;;;;;;;22.38;24.37;95093.25;5071037;28;20124;-65
2022/04/12 10:42:09;;;;;;;3.00;1.05;;;;;;;21.47;24.22;94952.31;5070908;28;20123;-64
2022/04/12 10:44:40;;;;;;;2.58;1.13;;;;;;;22.38;23.54;95054.53;5071144;28;20058;-65
2022/04/12 10:47:19;;;;;;;3.22;1.50;;;;;;;22.98;23.07;95106.28;5071086;28;20092;-65
2022/04/12 10:49:52;;;;;;;4.43;1.30;;;;;;;22.66;23.33;95064.69;5053206;28;20068;-65
2022/04/12 10:52:17;;;;;;;2.95;1.38;;;;;;;22.06;22.85;94958.41;5070540;28;20021;-65
2022/04/12 10:54:42;;;;;;;2.13;1.08;;;;;;;22.60;23.07;95060.81;5070589;28;20086;-66
2022/04/12 10:57:17;;;;;;;1.58;0.90;;;;;;;22.64;22.06;95053.47;5070673;28;20025;-65
2022/04/12 10:59:47;;;;;;;1.30;1.02;;;;;;;21.93;22.56;94994.31;5071181;28;20481;-65
2022/04/12 11:02:14;;;;;;;3.25;0.90;;;;;;;22.14;22.80;95020.75;5070537;28;20028;-66
2022/04/12 11:04:39;;;;;;;1.40;1.15;;;;;;;20.86;23.09;94913.25;5070823;28;20055;-66
2022/04/12 11:07:09;;;;;;;2.80;1.02;;;;;;;22.21;22.71;95069.53;5052848;28;20477;-65
2022/04/12 11:09:34;;;;;;;1.92;1.15;;;;;;;22.49;23.01;95072.38;5070673;28;20068;-64
2022/04/12 11:12:02;;;;;;;1.55;1.15;;;;;;;21.75;23.21;94975.28;5070379;28;20085;-65
2022/04/12 11:14:32;;;;;;;2.42;1.35;;;;;;;22.11;23.83;95065.66;5070814;28;20033;-65
2022/04/12 11:17:02;;;;;;;4.38;1.15;;;;;;;21.51;24.15;94953.13;5070745;28;20079;-64
2022/04/12 11:19:39;;;;;;;1.70;1.00;;;;;;;21.82;23.39;94983.44;5070675;28;20043;-66
2022/04/12 11:22:09;;;;;;;2.10;1.20;;;;;;;22.35;23.42;95001.09;5070246;28;20029;-66
2022/04/12 11:24:36;;;;;;;3.60;1.00;;;;;;;21.98;23.20;94875.56;5071057;28;20029;-66
2022/04/12 11:27:03;;;;;;;2.75;0.80;;;;;;;23.20;21.44;95062.88;5053061;28;20020;-65
2022/04/12 11:29:29;;;;;;;2.63;1.20;;;;;;;22.68;21.85;94933.03;5070511;28;20054;-66
2022/04/12 11:31:56;;;;;;;1.85;1.15;;;;;;;22.93;22.77;95035.31;5069973;28;20105;-66
2022/04/12 11:34:23;;;;;;;2.08;1.10;;;;;;;22.47;22.54;94925.63;5070685;28;20027;-66
2022/04/12 11:36:52;;;;;;;3.22;1.13;;;;;;;22.30;23.37;94924.44;5070500;28;20573;-66